logo
Rechercher aéroport 
image banner adimage banner adimage banner ad
image banner ad

FZJH - Isiro Matari

Situé à , Congo, the Democratic Republic of the

ICAO - FZJH, IATA - IRP

Données fournies par Airmate  

Information générale

Coordonnées: N2°49'36" E27°35'17"
Élévation : 2438 feet MSL.
 
Voir autres Aéroports à Orientale

Données opérationnelles

Special qualification required
Heure actuelle UTC:
Heure actuelle locale:
Météo à : - ( 0 km )
METAR: EKYT 232027Z AUTO 33002KT 4000 BR FEW039/// FEW080/// OVC097/// 18/16 Q1012
Voir NOTAMs / SUP AIP / TFR affectant cet aéroport [VIEW]
Fréquences de communication: [VIEW]

Pistes:

Identifiant RWYQFULongueur (ft)Largeur (ft)SurfaceLDA (ft)
13134°8202148ASP
31314°8202148ASP

Coordonnées de l'aéroport

Adresse: Congo, the Democratic Republic of the

Vue satellite de FZJH